Villanova D'Albenga International Airport LIMG

Flugplatz Daten

Name: Villanova D'Albenga International Airport

Ident: LIMG

Lat: 44,05059814

Long: 8,127429962

Platzhöhe: 148 ft

IataCode: ALL

City: Albenga

Metar

2021/08/05 12:50
LIMG 051250Z 17006KT 110V210 9999 SCT028 26/19 Q1008

Taf

Gewünschte Webcam nicht vorhanden? Dann fügen Sie eine hinzu. Sie wird dann so schnell wie möglich freigeschaltet
Url: Title: